« ### RJNT log 202007 ### | トップページ | 定点 富山空港 2020/8/4 tue »

2020/08/02

梅雨明け 富山空港 2020/8/2 sun

葉月に突入して、ようやく梅雨明け。平年より9日も遅く、久しぶりに一日お天道様が拝めそうです。

RJNT 012200Z 26003KT 9999 FEW015 BKN/// 24/20 Q1013

20200801_rjnt_00ja139t

コロナで遅れてはいますが、夏山は始まっています。朝から救助事案。

RJNT 012300Z VRB02KT 9999 FEW020 BKN/// 27/21 Q1013

20200801_rjnt_01ja139t

JA139T AW139 富山県警察

20200801_rjnt_02eva

南部出張所の救急車到着。

###

###

20200801_rjnt_03ja70an

ANA313 RJTT-RJNT JA70AN B737-881

20200801_rjnt_04ja70an

脚立がないと、夏草

20200801_rjnt_05ja139t

無事、救急隊に移管され

20200801_rjnt_06ja139t

すぐ整備に 調整してあったのか救急隊は、すぐに出発。

RJNT 020000Z VRB02KT 9999 FEW030 BKN/// 28/20 Q1013

20200801_rjnt_07ja9878

JA9878↓ AS350B THK

20200801_rjnt_08ja70an

航空需要は蒸発したと表現されますが、今朝もお見送り

20200801_rjnt_09ja70an

ANA316 RJNT-RJTT JA70AN B737-881

20200801_rjnt_10ja70an

RJNT 020100Z 31003KT 240V020 9999 FEW030 BKN/// 29/20 Q1012

20200801_rjnt_11y5701

公園隣接地で、農薬散布

20200801_rjnt_12y5701

巧みな操縦で、あっという間にかたずけていきます。

20200801_rjnt_13ja12aj

JA12AJ↓ C208B ASK この後八尾戻り

20200801_rjnt_14ja10ym

JA10YM→ A109SP SAK 富山県ドクヘリ 砺波事案

RJNT 020200Z 32006KT 240V360 9999 FEW030 SCT200 BKN/// 31/21 Q1012

20200801_rjnt_15ja139t

本日2回目の山岳救助

20200801_rjnt_16ja139t

JA139T↑

20200801_rjnt_17ja201m

JA201M↓ PA-28RT-201T

20200801_rjnt_18ja139t

負傷者は航空隊戻り

RJNT 020300Z 32004KT 250V030 9999 FEW030 SCT200 BKN/// 30/21 Q1012

20200801_rjnt_19ja139t

またしても南部出張所にお世話になります。

この後の外来

JA01PC

JA001X

今日も大活躍の県警航空隊&山岳警備隊 お疲れ様です。立山くんで元気だそう。

 

 

|

« ### RJNT log 202007 ### | トップページ | 定点 富山空港 2020/8/4 tue »

富山空港」カテゴリの記事

コメント

コメントを書く



(ウェブ上には掲載しません)


コメントは記事投稿者が公開するまで表示されません。



« ### RJNT log 202007 ### | トップページ | 定点 富山空港 2020/8/4 tue »